createdAt,value
2017-08-01T04:52:20.294Z,98061.88
2017-08-01T04:54:48.631Z,98051.69
2017-08-01T04:57:17.648Z,98066.17
2017-08-01T04:59:46.329Z,98068.81
2017-08-01T05:02:14.657Z,98087.64
2017-08-01T05:04:43.367Z,98093.10
2017-08-01T05:07:11.720Z,98104.44
2017-08-01T05:09:40.058Z,98113.78
2017-08-01T05:12:08.410Z,98114.98
2017-08-01T05:14:36.765Z,98113.22
2017-08-01T05:17:05.181Z,98116.67
2017-08-01T05:19:33.566Z,98127.31
2017-08-01T05:22:01.921Z,98132.53
2017-08-01T05:24:30.290Z,98151.34
2017-08-01T05:26:58.658Z,98163.50
2017-08-01T05:29:27.021Z,98190.45
2017-08-01T05:31:55.381Z,98190.92
2017-08-01T05:34:23.714Z,98219.36
2017-08-01T05:36:52.076Z,98240.42
2017-08-01T05:39:20.398Z,98223.08
2017-08-01T05:41:48.738Z,98240.50
2017-08-01T05:44:17.106Z,98240.31
2017-08-01T05:46:45.456Z,98267.67
2017-08-01T05:49:14.652Z,98243.81
2017-08-01T05:51:42.988Z,98246.02
2017-08-01T05:54:11.431Z,98256.08
2017-08-01T05:56:39.798Z,98244.80
2017-08-01T05:59:08.136Z,98219.39
2017-08-01T06:01:36.491Z,98210.92
2017-08-01T06:04:04.849Z,98210.47
2017-08-01T06:06:33.192Z,98231.43
2017-08-01T06:09:01.845Z,98233.94
2017-08-01T06:11:30.172Z,98218.20
2017-08-01T06:13:58.502Z,98232.95
2017-08-01T06:16:26.861Z,98225.02
2017-08-01T06:18:55.195Z,98208.31
2017-08-01T06:21:24.345Z,98204.74
2017-08-01T06:23:52.688Z,98211.27
2017-08-01T06:26:21.041Z,98200.48
2017-08-01T06:28:49.481Z,98188.05
2017-08-01T06:31:17.817Z,98186.86
2017-08-01T06:33:46.167Z,98202.63
2017-08-01T06:36:14.526Z,98235.59
2017-08-01T06:38:42.856Z,98226.23
2017-08-01T06:41:11.978Z,98227.09
2017-08-01T06:43:40.305Z,98219.54
2017-08-01T06:46:08.663Z,98211.36
2017-08-01T06:48:37.019Z,98223.88
2017-08-01T06:51:05.331Z,98231.44
2017-08-01T06:53:33.690Z,98201.19
2017-08-01T06:56:02.036Z,98181.59
2017-08-01T06:58:30.394Z,98177.89
2017-08-01T07:00:58.726Z,98148.98
2017-08-01T07:03:27.117Z,98145.52
2017-08-01T07:05:56.250Z,98139.70
2017-08-01T07:08:25.353Z,98169.73
2017-08-01T07:10:53.700Z,98211.38
2017-08-01T07:13:22.053Z,98187.70
2017-08-01T07:15:50.398Z,98233.33
2017-08-01T07:18:19.524Z,98280.16
2017-08-01T07:20:47.856Z,98305.80
2017-08-01T07:23:16.214Z,98319.44
2017-08-01T07:25:44.560Z,98349.66
2017-08-01T07:28:12.895Z,98376.34
2017-08-01T07:30:41.244Z,98348.03
2017-08-01T07:33:09.593Z,98346.80
2017-08-01T07:35:37.928Z,98357.02
2017-08-01T07:38:06.837Z,98367.35
2017-08-01T07:40:35.174Z,98407.30
2017-08-01T07:43:03.508Z,98444.14
2017-08-01T07:45:31.877Z,98453.78
2017-08-01T07:48:00.991Z,98461.23
2017-08-01T07:50:29.344Z,98470.36
2017-08-01T07:52:57.682Z,98462.09
2017-08-01T07:55:26.035Z,98471.79
2017-08-01T07:57:54.370Z,98409.50
2017-08-01T08:00:22.712Z,98388.16
2017-08-01T08:02:51.059Z,98372.30
2017-08-01T08:05:19.413Z,98335.02
2017-08-01T08:07:47.751Z,98398.05
2017-08-01T08:10:16.090Z,98372.10
2017-08-01T08:12:44.440Z,98357.58
2017-08-01T08:15:12.787Z,98351.62
2017-08-01T08:17:41.132Z,98358.61
2017-08-01T08:20:10.250Z,98405.80
2017-08-01T08:22:38.595Z,98442.04
2017-08-01T08:25:07.305Z,98378.84
2017-08-01T08:27:35.653Z,98335.34
2017-08-01T08:30:03.990Z,98299.31
2017-08-01T08:32:32.354Z,98268.47
2017-08-01T08:35:00.689Z,98289.06
2017-08-01T08:37:29.044Z,98269.08
2017-08-01T08:39:57.391Z,98267.89
2017-08-01T08:42:25.754Z,98281.64
2017-08-01T08:44:54.114Z,98280.80
2017-08-01T08:47:22.449Z,98272.38
2017-08-01T08:49:50.794Z,98267.04
2017-08-01T08:52:19.133Z,98261.75
2017-08-01T08:54:47.503Z,98249.98
2017-08-01T08:57:15.902Z,98266.06
2017-08-01T08:59:44.245Z,98281.44
2017-08-01T09:02:12.614Z,98287.69
2017-08-01T09:04:40.950Z,98289.97
2017-08-01T09:07:09.298Z,98294.90
2017-08-01T09:09:37.650Z,98300.53
2017-08-01T09:12:06.418Z,98278.91
2017-08-01T09:14:35.547Z,98286.30
2017-08-01T09:17:03.891Z,98257.65
2017-08-01T09:19:32.241Z,98238.67
2017-08-01T09:22:00.594Z,98195.75
2017-08-01T09:24:28.947Z,98228.13
2017-08-01T09:26:57.726Z,98243.98
2017-08-01T09:29:26.067Z,98255.48
2017-08-01T09:31:54.397Z,98247.86
2017-08-01T09:34:22.738Z,98233.88
2017-08-01T09:36:51.065Z,98217.80
2017-08-01T09:39:19.798Z,98212.05
2017-08-01T09:41:48.131Z,98214.14
2017-08-01T09:44:16.456Z,98201.81
2017-08-01T09:46:44.823Z,98193.50
2017-08-01T09:49:13.153Z,98198.56
2017-08-01T09:51:41.838Z,98181.38
2017-08-01T09:54:10.180Z,98203.03
2017-08-01T09:56:38.513Z,98212.95
2017-08-01T09:59:06.893Z,98224.92
2017-08-01T10:01:35.227Z,98255.22
2017-08-01T10:04:04.347Z,98289.65
2017-08-01T10:06:32.681Z,98310.26
2017-08-01T10:09:01.043Z,98316.32
2017-08-01T10:11:29.391Z,98315.09
2017-08-01T10:13:57.723Z,98317.79
2017-08-01T10:16:26.083Z,98331.75
2017-08-01T10:18:54.423Z,98374.53
2017-08-01T10:21:22.782Z,98410.35
2017-08-01T10:23:51.163Z,98399.08
2017-08-01T10:26:19.497Z,98368.48
2017-08-01T10:28:47.850Z,98348.70
2017-08-01T10:31:16.202Z,98347.56
2017-08-01T10:33:44.914Z,98368.38
2017-08-01T10:36:13.250Z,98380.11
2017-08-01T10:38:41.599Z,98363.05
2017-08-01T10:41:09.964Z,98357.85
2017-08-01T10:43:38.312Z,98361.17
2017-08-01T10:46:07.455Z,98372.52
2017-08-01T10:48:35.795Z,98375.54
2017-08-01T10:51:04.149Z,98372.39
2017-08-01T10:53:32.489Z,98414.34
2017-08-01T10:56:00.840Z,98474.91
2017-08-01T10:58:29.194Z,98451.33
2017-08-01T11:00:58.303Z,98417.94
2017-08-01T11:03:26.643Z,98399.76
2017-08-01T11:05:54.976Z,98398.42
2017-08-01T11:08:23.311Z,98403.92
2017-08-01T11:10:51.644Z,98406.63
2017-08-01T11:13:19.978Z,98396.13
2017-08-01T11:15:48.938Z,98398.34
2017-08-01T11:18:17.359Z,98410.04
2017-08-01T11:20:45.696Z,98404.58
2017-08-01T11:23:14.046Z,98407.87
2017-08-01T11:25:42.385Z,98401.81
2017-08-01T11:28:11.120Z,98411.36
2017-08-01T11:30:39.445Z,98406.44
2017-08-01T11:33:07.763Z,98397.46
2017-08-01T11:35:36.866Z,98384.96
2017-08-01T11:38:05.186Z,98355.46
2017-08-01T11:40:33.940Z,98335.48
2017-08-01T11:43:02.272Z,98332.39
2017-08-01T11:45:30.615Z,98307.59
2017-08-01T11:47:58.977Z,98289.23
2017-08-01T11:50:27.327Z,98265.20
2017-08-01T11:52:56.132Z,98257.20
2017-08-01T11:55:24.462Z,98260.48
2017-08-01T11:57:52.791Z,98250.30
2017-08-01T12:00:21.921Z,98243.17
2017-08-01T12:02:50.244Z,98262.24
2017-08-01T12:05:18.621Z,98294.03
2017-08-01T12:07:46.968Z,98377.03
2017-08-01T12:10:15.390Z,98419.89
2017-08-01T12:12:43.741Z,98415.09
2017-08-01T12:15:12.060Z,98401.86
2017-08-01T12:17:41.486Z,98377.90
2017-08-01T12:20:09.829Z,98384.30
2017-08-01T12:22:38.170Z,98341.13
2017-08-01T12:25:06.554Z,98307.41
2017-08-01T12:27:34.889Z,98311.27
2017-08-01T12:30:04.005Z,98325.38
2017-08-01T12:32:32.358Z,98330.38
2017-08-01T12:35:00.703Z,98314.33
2017-08-01T12:37:29.066Z,98327.30
2017-08-01T12:39:57.438Z,98330.19
2017-08-01T12:42:25.799Z,98326.53
2017-08-01T12:44:54.150Z,98294.95
2017-08-01T12:47:23.239Z,98285.62
2017-08-01T12:49:51.586Z,98273.96
2017-08-01T12:52:19.928Z,98265.11
2017-08-01T12:54:48.239Z,98280.61
2017-08-01T12:57:16.596Z,98296.28
2017-08-01T12:59:44.941Z,98312.88
2017-08-01T13:02:13.323Z,98308.39
2017-08-01T13:04:41.751Z,98323.18
2017-08-01T13:07:10.617Z,98327.07
2017-08-01T13:09:38.980Z,98328.03
2017-08-01T13:12:07.330Z,98345.64
2017-08-01T13:14:36.074Z,98350.13
2017-08-01T13:17:04.409Z,98356.06
2017-08-01T13:19:32.747Z,98345.28
2017-08-01T13:22:01.100Z,98370.72
2017-08-01T13:24:29.432Z,98374.91
2017-08-01T13:26:57.790Z,98359.92
2017-08-01T13:29:26.124Z,98345.71
2017-08-01T13:31:54.497Z,98333.64
2017-08-01T13:34:22.848Z,98343.05
2017-08-01T13:36:51.179Z,98340.63
2017-08-01T13:39:19.533Z,98335.23
2017-08-01T13:41:47.870Z,98316.84
2017-08-01T13:44:16.242Z,98331.59
2017-08-01T13:46:44.592Z,98310.77
2017-08-01T13:49:13.689Z,98291.58
2017-08-01T13:51:42.066Z,98307.98
2017-08-01T13:54:10.401Z,98293.16
2017-08-01T13:56:38.724Z,98273.57
2017-08-01T13:59:07.855Z,98228.42
2017-08-01T14:01:36.187Z,98159.73
2017-08-01T14:04:04.833Z,98193.79
2017-08-01T14:06:33.164Z,98198.88
2017-08-01T14:09:02.268Z,98217.59
2017-08-01T14:11:30.637Z,98221.98
2017-08-01T14:13:58.970Z,98206.59
2017-08-01T14:16:27.602Z,98290.44
2017-08-01T14:18:56.712Z,98294.95
2017-08-01T14:21:25.050Z,98310.78
2017-08-01T14:23:53.442Z,98300.52
2017-08-01T14:26:21.780Z,98275.53
2017-08-01T14:28:50.532Z,98231.80
2017-08-01T14:31:18.881Z,98141.13
2017-08-01T14:33:47.567Z,98105.70
2017-08-01T14:36:15.929Z,98204.72
2017-08-01T14:38:44.267Z,98264.62
2017-08-01T14:41:12.608Z,98282.88
2017-08-01T14:43:43.864Z,98278.45
2017-08-01T14:46:12.351Z,98278.14
2017-08-01T14:48:40.734Z,98279.34
2017-08-01T14:51:09.099Z,98274.82
2017-08-01T14:53:37.445Z,98267.09
2017-08-01T14:56:05.802Z,98257.89
2017-08-01T14:58:34.180Z,98257.13
2017-08-01T15:01:02.860Z,98263.02
2017-08-01T15:03:31.214Z,98246.62
2017-08-01T15:05:59.571Z,98235.83
2017-08-01T15:08:27.926Z,98190.73
2017-08-01T15:10:57.044Z,98153.12
2017-08-01T15:13:25.405Z,98183.28
2017-08-01T15:15:53.751Z,98268.77
2017-08-01T15:18:22.110Z,98239.86
2017-08-01T15:20:50.475Z,98205.75
2017-08-01T15:23:18.830Z,98208.45
2017-08-01T15:25:47.181Z,98202.87
2017-08-01T15:28:15.567Z,98204.64
2017-08-01T15:30:43.934Z,98210.91
2017-08-01T15:33:12.293Z,98218.25
2017-08-01T15:35:41.399Z,98220.93
2017-08-01T15:38:10.089Z,98216.27
2017-08-01T15:40:38.435Z,98207.42
2017-08-01T15:43:06.786Z,98197.55
2017-08-01T15:45:35.152Z,98193.40
2017-08-01T15:48:03.503Z,98193.13
2017-08-01T15:50:32.951Z,98193.96
2017-08-01T15:53:01.293Z,98206.61
2017-08-01T15:55:29.624Z,98220.92
2017-08-01T15:57:57.990Z,98219.02
2017-08-01T16:00:26.331Z,98218.09
2017-08-01T16:02:55.484Z,98208.17
2017-08-01T16:05:23.859Z,98200.08
2017-08-01T16:07:52.218Z,98211.77
2017-08-01T16:10:20.548Z,98218.44
2017-08-01T16:12:48.946Z,98222.45
2017-08-01T16:15:17.293Z,98228.86
2017-08-01T16:17:45.948Z,98235.28
2017-08-01T16:20:14.293Z,98237.38
2017-08-01T16:22:45.497Z,98236.66
2017-08-01T16:25:13.848Z,98255.87
2017-08-01T16:27:42.238Z,98249.97
2017-08-01T16:30:10.990Z,98252.09
2017-08-01T16:32:39.328Z,98257.11
2017-08-01T16:35:07.665Z,98264.53
2017-08-01T16:37:36.052Z,98260.16
2017-08-01T16:40:04.390Z,98264.59
2017-08-01T16:42:33.516Z,98271.44
2017-08-01T16:45:01.895Z,98268.67
2017-08-01T16:47:30.259Z,98277.63
2017-08-01T16:49:58.642Z,98278.26
2017-08-01T16:52:26.980Z,98283.09
2017-08-01T16:54:55.330Z,98281.19
2017-08-01T16:57:23.724Z,98273.56
2017-08-01T16:59:52.070Z,98284.00
2017-08-01T17:02:20.729Z,98320.72
2017-08-01T17:04:49.060Z,98319.80
2017-08-01T17:07:17.389Z,98318.58
2017-08-01T17:09:45.752Z,98320.72
2017-08-01T17:12:14.090Z,98324.59
2017-08-01T17:14:42.455Z,98321.61
2017-08-01T17:17:10.817Z,98326.84
2017-08-01T17:19:39.175Z,98323.36
2017-08-01T17:22:07.542Z,98313.20
2017-08-01T17:24:35.934Z,98303.70
2017-08-01T17:27:04.309Z,98299.22
2017-08-01T17:29:32.675Z,98301.53
2017-08-01T17:32:01.097Z,98303.03
2017-08-01T17:34:29.513Z,98308.12
2017-08-01T17:36:57.858Z,98299.58
2017-08-01T17:39:26.601Z,98298.69
2017-08-01T17:41:54.970Z,98290.39
2017-08-01T17:44:23.318Z,98286.50
2017-08-01T17:46:51.681Z,98285.03
2017-08-01T17:49:20.053Z,98289.44
2017-08-01T17:51:48.656Z,98294.67
2017-08-01T17:54:16.994Z,98299.17
2017-08-01T17:56:45.333Z,98297.45
2017-08-01T17:59:13.688Z,98301.72
2017-08-01T18:01:42.049Z,98313.54
2017-08-01T18:04:10.417Z,98318.19
2017-08-01T18:06:39.237Z,98317.23
2017-08-01T18:09:08.339Z,98324.90
2017-08-01T18:11:36.752Z,98327.55
2017-08-01T18:14:05.108Z,98322.28
2017-08-01T18:16:33.466Z,98327.20
2017-08-01T18:19:01.826Z,98331.25
2017-08-01T18:21:30.182Z,98322.27
2017-08-01T18:23:58.530Z,98322.02
2017-08-01T18:26:26.870Z,98324.56
2017-08-01T18:28:55.463Z,98332.91
2017-08-01T18:31:23.798Z,98345.93
2017-08-01T18:33:52.150Z,98349.70
2017-08-01T18:36:20.529Z,98348.30
2017-08-01T18:38:48.856Z,98348.38
2017-08-01T18:41:17.581Z,98345.14
2017-08-01T18:43:45.922Z,98353.64
2017-08-01T18:46:14.280Z,98360.28
2017-08-01T18:48:42.665Z,98358.22
2017-08-01T18:51:11.020Z,98356.76
2017-08-01T18:53:39.654Z,98349.73
2017-08-01T18:56:09.204Z,98359.26
2017-08-01T18:58:37.583Z,98355.47
2017-08-01T19:01:05.946Z,98347.89
2017-08-01T19:03:34.810Z,98339.09
2017-08-01T19:06:03.712Z,98332.01
2017-08-01T19:08:32.717Z,98337.66
2017-08-01T19:11:01.066Z,98331.37
2017-08-01T19:13:29.419Z,98329.22
2017-08-01T19:15:58.275Z,98324.72
2017-08-01T19:18:31.524Z,98336.31
2017-08-01T19:21:00.197Z,98339.98
2017-08-01T19:23:28.550Z,98338.27
2017-08-01T19:25:56.895Z,98347.63
2017-08-01T19:28:25.264Z,98354.42
2017-08-01T19:30:54.021Z,98364.72
2017-08-01T19:33:22.390Z,98378.45
2017-08-01T19:35:50.802Z,98380.77
2017-08-01T19:38:19.566Z,98376.80
2017-08-01T19:40:47.913Z,98383.80
2017-08-01T19:43:16.263Z,98384.23
2017-08-01T19:45:44.616Z,98394.82
2017-08-01T19:48:13.393Z,98399.53
2017-08-01T19:50:41.734Z,98401.03
2017-08-01T19:53:10.076Z,98393.00
2017-08-01T19:55:39.041Z,98397.97
2017-08-01T19:58:07.390Z,98399.73
2017-08-01T20:00:36.534Z,98408.34
2017-08-01T20:03:04.973Z,98406.31
2017-08-01T20:05:34.254Z,98412.36
2017-08-01T20:08:03.180Z,98420.75
2017-08-01T20:10:31.521Z,98415.34
2017-08-01T20:13:00.714Z,98423.61
2017-08-01T20:15:29.080Z,98423.75
2017-08-01T20:17:57.440Z,98430.66
2017-08-01T20:20:26.475Z,98424.76
2017-08-01T20:22:54.810Z,98418.19
2017-08-01T20:25:23.166Z,98416.02
2017-08-01T20:27:51.537Z,98417.09
2017-08-01T20:30:19.868Z,98419.12
2017-08-01T20:32:48.229Z,98423.89
2017-08-01T20:35:16.902Z,98430.69
2017-08-01T20:37:45.242Z,98434.79
2017-08-01T20:40:13.581Z,98436.48
2017-08-01T20:42:41.954Z,98429.62
2017-08-01T20:45:10.325Z,98437.83
2017-08-01T20:47:39.073Z,98439.91
2017-08-01T20:50:07.421Z,98436.33
2017-08-01T20:52:35.783Z,98434.79
2017-08-01T20:55:04.146Z,98436.52
2017-08-01T20:57:33.254Z,98424.65
2017-08-01T21:00:01.626Z,98416.23
2017-08-01T21:02:29.977Z,98410.97
2017-08-01T21:04:58.326Z,98423.78
2017-08-01T21:07:26.670Z,98421.95
2017-08-01T21:09:55.041Z,98433.21
2017-08-01T21:12:24.161Z,98432.41
2017-08-01T21:14:52.500Z,98431.95
2017-08-01T21:17:20.843Z,98430.53
2017-08-01T21:19:49.206Z,98435.19
2017-08-01T21:22:17.560Z,98433.11
2017-08-01T21:24:46.355Z,98429.83
2017-08-01T21:27:14.699Z,98432.61
2017-08-01T21:29:43.037Z,98435.43
2017-08-01T21:32:11.407Z,98438.34
2017-08-01T21:34:39.782Z,98448.39
2017-08-01T21:37:08.563Z,98453.03
2017-08-01T21:39:36.906Z,98454.88
2017-08-01T21:42:05.251Z,98462.39
2017-08-01T21:44:33.593Z,98455.91
2017-08-01T21:47:02.688Z,98450.34
2017-08-01T21:49:31.387Z,98451.98
2017-08-01T21:51:59.747Z,98461.02
2017-08-01T21:54:28.066Z,98462.09
2017-08-01T21:56:56.412Z,98470.25
2017-08-01T21:59:25.510Z,98469.11
2017-08-01T22:01:53.883Z,98468.50
2017-08-01T22:04:22.223Z,98469.87
2017-08-01T22:06:50.577Z,98466.23
2017-08-01T22:09:18.939Z,98476.27
2017-08-01T22:11:47.289Z,98478.69
2017-08-01T22:14:15.724Z,98486.13
2017-08-01T22:16:44.070Z,98491.52
2017-08-01T22:19:12.438Z,98498.27
2017-08-01T22:21:41.557Z,98496.66
2017-08-01T22:24:09.919Z,98504.20
2017-08-01T22:26:38.598Z,98507.73
2017-08-01T22:29:06.925Z,98513.99
2017-08-01T22:31:35.267Z,98513.91
2017-08-01T22:34:04.385Z,98512.47
2017-08-01T22:36:32.712Z,98520.64
2017-08-01T22:39:01.065Z,98522.20
2017-08-01T22:41:29.406Z,98518.94
2017-08-01T22:43:58.544Z,98522.13
2017-08-01T22:46:26.898Z,98518.27
2017-08-01T22:48:55.223Z,98511.53
2017-08-01T22:51:23.565Z,98524.13
2017-08-01T22:53:51.904Z,98523.18
2017-08-01T22:56:21.041Z,98526.17
2017-08-01T22:58:50.300Z,98521.92
2017-08-01T23:01:18.630Z,98521.96
2017-08-01T23:03:46.971Z,98521.15
2017-08-01T23:06:16.089Z,98520.04
2017-08-01T23:08:44.411Z,98518.91
2017-08-01T23:11:12.762Z,98513.41
2017-08-01T23:13:41.090Z,98516.25
2017-08-01T23:16:09.906Z,98515.20
2017-08-01T23:18:38.247Z,98509.84
2017-08-01T23:21:06.587Z,98513.06
2017-08-01T23:23:34.945Z,98514.13
2017-08-01T23:26:03.286Z,98508.52
2017-08-01T23:28:32.027Z,98508.00
2017-08-01T23:31:00.360Z,98505.87
2017-08-01T23:33:29.071Z,98506.91
2017-08-01T23:35:58.194Z,98502.62
2017-08-01T23:38:26.516Z,98505.41
2017-08-01T23:40:54.834Z,98506.85
2017-08-01T23:43:23.183Z,98505.17
2017-08-01T23:45:51.516Z,98498.33
2017-08-01T23:48:20.293Z,98504.42
2017-08-01T23:50:48.611Z,98504.04
2017-08-01T23:53:17.442Z,98509.50
2017-08-01T23:55:45.780Z,98510.98
2017-08-01T23:58:14.124Z,98517.56
